Time;durP1;ratioP1;P1;durP2;ratioP2;P2;SDS_P1;SDS_P2;PMS_P1;PMS_P2;Temp;Humidity;BMP_temperature;BMP_pressure;BME280_temperature;BME280_humidity;BME280_pressure;Samples;Min_cycle;Max_cycle;Signal;HPM_P1;HPM_P2
2022/05/24 00:00:59;;;;;;;11.63;7.65;;;14.20;99.90;;;;;;5063728;28;20040;-87
2022/05/24 00:03:25;;;;;;;10.10;7.97;;;14.20;99.90;;;;;;5110760;27;20044;-88
2022/05/24 00:05:50;;;;;;;8.45;7.30;;;14.20;99.90;;;;;;5125401;28;20080;-89
2022/05/24 00:08:16;;;;;;;9.00;5.97;;;14.10;99.90;;;;;;5109191;28;20051;-90
2022/05/24 00:10:42;;;;;;;7.50;5.65;;;14.00;99.90;;;;;;5112098;28;20028;-87
2022/05/24 00:13:10;;;;;;;9.00;5.28;;;13.90;99.90;;;;;;5107504;28;20032;-90
2022/05/24 00:15:35;;;;;;;7.38;5.25;;;13.80;99.90;;;;;;5089096;28;20070;-88
2022/05/24 00:18:08;;;;;;;8.20;5.47;;;13.70;99.90;;;;;;5082872;28;20440;-88
2022/05/24 00:20:36;;;;;;;7.32;4.85;;;13.70;99.90;;;;;;5127602;27;20045;-87
2022/05/24 00:23:02;;;;;;;7.70;4.47;;;13.60;99.90;;;;;;5081366;28;20095;-87
2022/05/24 00:25:28;;;;;;;6.05;4.53;;;13.50;99.90;;;;;;5095742;27;20123;-86
2022/05/24 00:27:54;;;;;;;6.40;3.88;;;13.40;99.90;;;;;;5082687;28;20036;-86
2022/05/24 00:30:20;;;;;;;4.82;4.07;;;13.30;99.90;;;;;;5079914;28;20036;-86
2022/05/24 00:32:45;;;;;;;7.53;4.40;;;13.30;99.90;;;;;;5086647;28;20093;-86
2022/05/24 00:35:11;;;;;;;5.35;3.95;;;13.30;99.90;;;;;;5080342;28;20051;-86
2022/05/24 00:37:38;;;;;;;5.82;4.13;;;13.20;99.90;;;;;;5079102;28;20374;-86
2022/05/24 00:40:05;;;;;;;6.28;4.82;;;13.10;99.90;;;;;;5074587;28;20075;-86
2022/05/24 00:42:31;;;;;;;8.18;4.57;;;13.10;99.90;;;;;;5082341;28;20128;-87
2022/05/24 00:45:06;;;;;;;6.07;4.85;;;13.10;99.90;;;;;;5080232;28;20126;-88
2022/05/24 00:47:45;;;;;;;6.82;4.75;;;13.00;99.90;;;;;;5081569;28;20048;-87
2022/05/24 00:50:24;;;;;;;8.50;5.25;;;13.00;99.90;;;;;;5102216;27;20058;-86
2022/05/24 00:52:56;;;;;;;7.47;5.28;;;13.00;99.90;;;;;;5054179;28;20041;-85
2022/05/24 00:55:22;;;;;;;6.32;5.25;;;13.00;99.90;;;;;;5079793;28;20044;-85
2022/05/24 00:58:16;;;;;;;6.80;5.28;;;13.00;99.90;;;;;;5050496;28;20169;-86
2022/05/24 01:00:42;;;;;;;6.35;5.68;;;13.00;99.90;;;;;;5085183;28;20500;-86
2022/05/24 01:03:07;;;;;;;9.30;5.47;;;12.90;99.90;;;;;;5066111;28;20044;-85
2022/05/24 01:05:33;;;;;;;10.63;5.50;;;12.90;99.90;;;;;;5065839;28;20047;-87
2022/05/24 01:07:59;;;;;;;6.07;5.13;;;12.90;99.90;;;;;;5082155;28;20048;-86
2022/05/24 01:10:34;;;;;;;6.40;4.80;;;12.90;99.90;;;;;;5097053;28;20087;-86
2022/05/24 01:13:06;;;;;;;6.47;5.03;;;12.90;99.90;;;;;;5076072;28;20048;-85
2022/05/24 01:15:32;;;;;;;6.70;5.55;;;12.90;99.90;;;;;;5049758;28;20114;-86
2022/05/24 01:17:58;;;;;;;6.28;5.13;;;12.90;99.90;;;;;;5087360;28;20056;-85
2022/05/24 01:20:24;;;;;;;7.60;4.32;;;12.80;99.90;;;;;;5068065;28;20104;-87
2022/05/24 01:23:11;;;;;;;9.25;4.70;;;12.80;99.90;;;;;;5077978;28;20116;-85
2022/05/24 01:25:52;;;;;;;7.97;5.15;;;12.80;99.90;;;;;;5083546;28;20040;-85
2022/05/24 01:28:42;;;;;;;6.57;5.40;;;12.70;99.90;;;;;;5085630;28;20044;-85
2022/05/24 01:31:08;;;;;;;4.78;3.88;;;12.70;99.90;;;;;;5100907;28;20562;-85
2022/05/24 01:36:19;;;;;;;6.10;3.90;;;12.70;99.90;;;;;;5079620;28;20107;-86
2022/05/24 01:38:58;;;;;;;5.05;3.30;;;12.80;99.90;;;;;;5096596;28;20070;-86
2022/05/24 01:41:26;;;;;;;4.05;3.20;;;12.80;99.90;;;;;;5069397;28;20101;-85
2022/05/24 01:43:53;;;;;;;3.45;2.83;;;12.80;99.90;;;;;;5064398;28;20073;-85
2022/05/24 01:46:30;;;;;;;3.38;2.80;;;12.80;99.90;;;;;;5078942;28;20044;-86
2022/05/24 01:48:57;;;;;;;3.25;2.72;;;12.80;99.90;;;;;;5066568;28;20040;-85
2022/05/24 01:51:29;;;;;;;4.57;2.90;;;12.90;99.90;;;;;;5084147;28;20117;-85
2022/05/24 01:53:57;;;;;;;3.00;2.70;;;12.80;99.90;;;;;;5082630;28;20099;-85
2022/05/24 01:56:27;;;;;;;2.53;2.33;;;12.80;99.90;;;;;;5079998;28;20036;-86
2022/05/24 01:58:54;;;;;;;;;;;12.90;99.90;;;;;;5048301;28;20044;-86
2022/05/24 02:01:26;;;;;;;3.97;2.30;;;12.80;99.90;;;;;;5071730;28;19957;-88
2022/05/24 02:03:54;;;;;;;2.58;2.03;;;12.70;99.90;;;;;;5068625;28;20137;-85
2022/05/24 02:06:25;;;;;;;2.20;2.00;;;12.80;99.90;;;;;;5092031;28;20020;-93
2022/05/24 02:08:52;;;;;;;3.58;1.80;;;12.90;99.90;;;;;;5094834;28;20052;-86
2022/05/24 02:11:20;;;;;;;2.10;1.90;;;12.90;99.90;;;;;;5088389;28;20091;-87
2022/05/24 02:13:46;;;;;;;1.63;1.52;;;12.90;99.90;;;;;;5083848;28;20035;-86
2022/05/24 02:16:14;;;;;;;1.95;1.58;;;12.90;99.90;;;;;;5113161;28;20031;-90
2022/05/24 02:18:40;;;;;;;1.90;1.40;;;12.90;99.90;;;;;;5090819;28;20052;-86
2022/05/24 02:21:06;;;;;;;1.40;1.30;;;13.00;99.90;;;;;;5089277;28;20047;-90
2022/05/24 02:23:39;;;;;;;1.88;1.25;;;13.00;99.90;;;;;;5115250;28;20467;-86
2022/05/24 02:26:07;;;;;;;1.67;1.40;;;13.00;99.90;;;;;;5065977;28;20443;-86
2022/05/24 02:28:33;;;;;;;2.00;1.30;;;13.00;99.90;;;;;;5068748;28;20060;-87
2022/05/24 02:31:04;;;;;;;1.73;1.30;;;13.00;99.90;;;;;;5078324;28;20037;-86
2022/05/24 02:33:30;;;;;;;1.70;1.58;;;13.00;99.90;;;;;;5078619;28;20504;-86
2022/05/24 02:35:56;;;;;;;1.95;1.27;;;13.00;99.90;;;;;;5081647;28;20044;-84
2022/05/24 02:38:22;;;;;;;1.92;1.50;;;13.00;99.90;;;;;;5084226;28;20047;-86
2022/05/24 02:43:32;;;;;;;2.17;1.90;;;13.10;99.90;;;;;;5074735;28;20048;-85
2022/05/24 02:45:58;;;;;;;1.95;1.63;;;13.10;99.90;;;;;;5076341;28;20044;-86
2022/05/24 02:48:23;;;;;;;2.20;1.48;;;13.10;99.90;;;;;;5100704;28;20044;-85
2022/05/24 02:50:49;;;;;;;2.35;1.80;;;13.10;99.90;;;;;;5065737;28;20040;-86
2022/05/24 02:53:15;;;;;;;1.70;1.30;;;13.20;99.90;;;;;;5097470;28;20048;-85
2022/05/24 02:55:40;;;;;;;1.67;1.10;;;13.20;99.90;;;;;;5092195;28;20045;-84
2022/05/24 02:58:06;;;;;;;1.75;1.17;;;13.10;99.90;;;;;;5064067;28;20078;-85
2022/05/24 03:00:32;;;;;;;1.90;1.58;;;13.20;99.90;;;;;;5095692;28;20384;-86
2022/05/24 03:02:58;;;;;;;1.40;1.30;;;13.20;99.90;;;;;;5066772;28;20056;-85
2022/05/24 03:05:24;;;;;;;1.92;1.60;;;13.20;99.90;;;;;;5082382;28;20036;-85
2022/05/24 03:10:35;;;;;;;1.65;1.38;;;13.20;99.90;;;;;;5053476;28;20052;-85
2022/05/24 03:15:45;;;;;;;1.70;1.35;;;13.20;99.90;;;;;;5072929;28;20064;-86
2022/05/24 03:18:12;;;;;;;1.63;1.42;;;13.20;99.90;;;;;;5085177;28;20044;-87
2022/05/24 03:20:39;;;;;;;2.38;1.58;;;13.20;99.90;;;;;;5038402;28;20048;-87
2022/05/24 03:23:05;;;;;;;3.13;1.58;;;13.20;99.90;;;;;;5080796;28;20036;-85
2022/05/24 03:25:32;;;;;;;2.00;1.35;;;13.20;99.90;;;;;;5089794;28;20484;-85
2022/05/24 03:27:58;;;;;;;2.08;1.60;;;13.20;99.90;;;;;;5072207;28;20090;-85
2022/05/24 03:30:25;;;;;;;2.10;1.67;;;13.20;99.90;;;;;;5083479;28;20036;-87
2022/05/24 03:32:51;;;;;;;2.65;1.67;;;13.30;99.90;;;;;;5082623;28;20051;-86
2022/05/24 03:35:16;;;;;;;1.10;0.73;;;13.40;99.90;;;;;;5051117;28;20040;-88
2022/05/24 03:37:42;;;;;;;1.33;0.95;;;13.30;99.90;;;;;;5060055;28;20407;-87
2022/05/24 03:40:08;;;;;;;0.80;0.70;;;13.40;99.90;;;;;;5086716;28;20060;-85
2022/05/24 03:42:35;;;;;;;1.02;0.85;;;13.40;99.90;;;;;;5070203;28;20086;-92
2022/05/24 03:45:01;;;;;;;1.70;0.90;;;13.40;99.90;;;;;;5051428;28;20524;-86
2022/05/24 03:47:26;;;;;;;1.45;1.00;;;13.40;99.90;;;;;;5085048;28;20522;-86
2022/05/24 03:49:52;;;;;;;1.45;1.05;;;13.50;99.90;;;;;;5087563;28;20032;-86
2022/05/24 03:52:18;;;;;;;1.40;0.93;;;13.50;99.90;;;;;;5079789;28;20083;-86
2022/05/24 03:54:44;;;;;;;1.35;1.00;;;13.50;99.90;;;;;;5095740;28;20037;-86
2022/05/24 03:59:56;;;;;;;1.77;0.88;;;13.50;99.90;;;;;;5086574;28;20051;-86
2022/05/24 04:02:21;;;;;;;1.65;0.90;;;13.50;99.90;;;;;;5084929;28;20467;-87
2022/05/24 04:04:47;;;;;;;1.90;0.90;;;13.60;99.90;;;;;;5105534;28;20044;-93
2022/05/24 04:07:13;;;;;;;1.42;0.93;;;13.60;99.90;;;;;;5123668;28;20046;-88
2022/05/24 04:09:38;;;;;;;1.05;0.70;;;13.60;99.90;;;;;;5113049;28;20037;-93
2022/05/24 04:12:05;;;;;;;1.00;0.63;;;13.50;99.90;;;;;;5102249;28;20043;-87
2022/05/24 04:14:31;;;;;;;1.30;0.93;;;13.60;99.90;;;;;;5110902;28;20047;-89
2022/05/24 04:16:57;;;;;;;1.52;0.95;;;13.60;99.90;;;;;;5126807;27;20043;-88
2022/05/24 04:19:23;;;;;;;0.75;0.63;;;13.60;99.90;;;;;;5097026;28;20048;-85
2022/05/24 04:21:48;;;;;;;1.75;0.85;;;13.60;99.90;;;;;;5097274;28;20127;-86
2022/05/24 04:24:14;;;;;;;1.67;0.82;;;13.60;99.90;;;;;;5082605;28;20450;-86
2022/05/24 04:26:40;;;;;;;1.63;0.70;;;13.60;99.90;;;;;;5065900;28;20098;-86
2022/05/24 04:29:06;;;;;;;0.82;0.70;;;13.60;99.90;;;;;;5055454;28;20400;-86
2022/05/24 04:31:31;;;;;;;0.75;0.65;;;13.70;99.90;;;;;;5081256;28;20044;-87
2022/05/24 04:33:57;;;;;;;0.80;0.60;;;13.70;99.90;;;;;;5095559;28;20051;-86
2022/05/24 04:36:22;;;;;;;1.23;0.80;;;13.70;99.90;;;;;;5085195;28;20037;-87
2022/05/24 04:38:48;;;;;;;0.88;0.55;;;13.70;99.90;;;;;;5067434;28;20130;-86
2022/05/24 04:43:58;;;;;;;1.00;0.63;;;13.70;99.90;;;;;;5093203;28;20052;-86
2022/05/24 04:46:23;;;;;;;1.00;0.80;;;13.80;99.90;;;;;;5087551;28;20123;-85
2022/05/24 04:48:49;;;;;;;1.25;0.90;;;13.80;99.90;;;;;;5069578;28;20048;-86
2022/05/24 04:51:15;;;;;;;1.08;0.75;;;13.80;99.90;;;;;;5101715;28;20075;-85
2022/05/24 04:53:40;;;;;;;1.13;0.73;;;13.80;99.90;;;;;;5079808;28;20515;-86
2022/05/24 04:56:06;;;;;;;0.70;0.70;;;13.80;99.90;;;;;;5103016;28;20123;-84
2022/05/24 04:58:32;;;;;;;1.42;0.90;;;13.90;99.90;;;;;;5092366;28;20062;-84
2022/05/24 05:00:57;;;;;;;1.25;0.70;;;13.90;99.90;;;;;;5080862;28;20220;-86
2022/05/24 05:03:25;;;;;;;1.15;0.70;;;13.80;99.90;;;;;;5083914;28;20032;-87
2022/05/24 05:05:51;;;;;;;1.10;0.63;;;13.80;99.90;;;;;;5079942;28;20048;-86
2022/05/24 05:08:17;;;;;;;1.30;0.80;;;13.80;99.90;;;;;;5065066;28;20393;-86
2022/05/24 05:10:42;;;;;;;0.90;0.68;;;13.80;99.90;;;;;;5085364;28;20036;-87
2022/05/24 05:13:08;;;;;;;0.63;0.50;;;13.90;99.90;;;;;;5086591;28;20056;-91
2022/05/24 05:15:34;;;;;;;0.98;0.68;;;13.90;99.90;;;;;;5079574;28;20127;-85
2022/05/24 05:18:09;;;;;;;1.33;0.63;;;13.90;99.90;;;;;;5090653;28;20162;-86
2022/05/24 05:20:39;;;;;;;1.13;0.63;;;13.90;99.90;;;;;;5077822;28;20525;-86
2022/05/24 05:23:13;;;;;;;0.93;0.82;;;14.00;99.90;;;;;;5086197;28;20050;-84
2022/05/24 05:25:39;;;;;;;0.85;0.70;;;13.90;99.90;;;;;;5070963;28;20044;-84
2022/05/24 05:28:05;;;;;;;0.90;0.80;;;14.00;99.90;;;;;;5072057;28;20051;-83
2022/05/24 05:33:19;;;;;;;0.82;0.73;;;14.00;99.90;;;;;;5091951;28;20069;-84
2022/05/24 05:35:45;;;;;;;0.50;0.50;;;14.00;99.90;;;;;;5097447;28;20047;-85
2022/05/24 05:38:11;;;;;;;2.15;1.05;;;14.10;99.90;;;;;;5084802;28;20621;-85
2022/05/24 05:40:37;;;;;;;1.42;0.80;;;14.00;99.90;;;;;;5091596;28;20048;-86
2022/05/24 05:43:03;;;;;;;1.10;0.75;;;14.00;99.90;;;;;;5083182;28;20407;-84
2022/05/24 05:45:28;;;;;;;1.13;0.80;;;14.00;99.90;;;;;;5094520;28;20395;-84
2022/05/24 05:47:54;;;;;;;1.38;0.75;;;14.10;99.90;;;;;;5094305;28;20048;-84
2022/05/24 05:50:20;;;;;;;1.33;0.88;;;14.10;99.90;;;;;;5071524;28;20044;-84
2022/05/24 05:52:46;;;;;;;0.90;0.88;;;14.10;99.90;;;;;;5075754;28;20051;-84
2022/05/24 05:55:12;;;;;;;0.88;0.52;;;14.10;99.90;;;;;;5078388;28;20044;-85
2022/05/24 05:57:39;;;;;;;1.30;0.80;;;14.10;99.90;;;;;;5092861;28;20051;-84
2022/05/24 06:00:08;;;;;;;0.95;0.60;;;14.10;99.90;;;;;;5131262;28;20032;-89
2022/05/24 06:02:34;;;;;;;0.95;0.77;;;14.10;99.90;;;;;;5064585;28;20043;-85
2022/05/24 06:05:00;;;;;;;1.25;0.80;;;14.20;99.90;;;;;;5109012;28;20051;-91
2022/05/24 06:07:25;;;;;;;0.98;0.50;;;14.20;99.90;;;;;;5100983;28;20092;-84
2022/05/24 06:09:51;;;;;;;0.80;0.68;;;14.30;99.90;;;;;;5118961;28;20028;-89
2022/05/24 06:12:17;;;;;;;1.00;0.70;;;14.30;99.90;;;;;;5135832;28;20027;-85
2022/05/24 06:14:42;;;;;;;1.10;0.80;;;14.30;99.90;;;;;;5118114;28;20028;-85
2022/05/24 06:17:08;;;;;;;1.85;0.90;;;14.30;99.90;;;;;;5113113;28;20044;-83
2022/05/24 06:19:34;;;;;;;1.40;0.82;;;14.30;99.90;;;;;;5075854;28;20040;-84
2022/05/24 06:22:00;;;;;;;0.85;0.60;;;14.40;99.90;;;;;;5108772;28;20050;-84
2022/05/24 06:24:25;;;;;;;0.98;0.77;;;14.30;99.90;;;;;;5088332;28;20104;-84
2022/05/24 06:26:51;;;;;;;1.02;0.63;;;14.40;99.90;;;;;;5093859;28;20051;-84
2022/05/24 06:29:17;;;;;;;1.25;0.60;;;14.50;99.90;;;;;;5095295;28;20042;-84
2022/05/24 06:31:45;;;;;;;1.40;0.77;;;14.60;99.90;;;;;;5049325;28;20044;-84
2022/05/24 06:34:11;;;;;;;1.30;0.60;;;14.60;99.90;;;;;;5076888;28;20549;-84
2022/05/24 06:36:37;;;;;;;0.52;0.52;;;14.70;99.90;;;;;;5056134;28;20040;-83
2022/05/24 06:39:03;;;;;;;0.75;0.63;;;14.80;99.90;;;;;;5102353;28;20125;-84
2022/05/24 06:41:28;;;;;;;1.25;0.80;;;14.90;99.90;;;;;;5075340;28;20092;-83
2022/05/24 06:43:54;;;;;;;0.82;0.77;;;14.90;99.90;;;;;;5091947;28;20496;-83
2022/05/24 06:46:20;;;;;;;0.70;0.65;;;14.90;99.90;;;;;;5075430;28;20043;-84
2022/05/24 06:48:45;;;;;;;0.88;0.80;;;14.90;99.90;;;;;;5092073;28;20466;-84
2022/05/24 06:51:13;;;;;;;2.00;0.70;;;15.00;99.90;;;;;;5074958;28;20055;-84
2022/05/24 06:53:39;;;;;;;0.70;0.63;;;15.00;99.90;;;;;;5058783;28;20056;-84
2022/05/24 06:56:06;;;;;;;0.60;0.60;;;15.00;99.90;;;;;;5038407;28;20492;-84
2022/05/24 06:58:32;;;;;;;0.57;0.50;;;15.00;99.90;;;;;;5039003;28;20135;-83
2022/05/24 07:03:42;;;;;;;0.80;0.60;;;14.90;99.90;;;;;;5043441;28;20048;-84
2022/05/24 07:06:07;;;;;;;0.77;0.65;;;14.90;99.90;;;;;;5071237;28;20063;-84
2022/05/24 07:08:33;;;;;;;0.60;0.60;;;14.80;99.90;;;;;;5071901;28;20054;-84
2022/05/24 07:10:59;;;;;;;0.60;0.60;;;14.90;99.90;;;;;;5038315;28;20396;-84
2022/05/24 07:13:24;;;;;;;0.50;0.50;;;14.80;99.90;;;;;;5054329;28;20096;-83
2022/05/24 07:15:50;;;;;;;0.93;0.70;;;14.80;99.90;;;;;;5071616;28;20055;-84
2022/05/24 07:18:16;;;;;;;0.60;0.60;;;14.70;99.90;;;;;;5054638;28;20059;-88
2022/05/24 07:20:42;;;;;;;0.60;0.60;;;14.70;99.90;;;;;;5054690;28;20396;-85
2022/05/24 07:23:18;;;;;;;0.57;0.50;;;14.60;99.90;;;;;;5071101;28;20127;-83
2022/05/24 07:25:44;;;;;;;0.50;0.50;;;14.60;99.90;;;;;;5055237;28;20060;-84
2022/05/24 07:28:11;;;;;;;0.98;0.70;;;14.50;99.90;;;;;;5071546;28;20048;-86
2022/05/24 07:30:37;;;;;;;2.10;0.70;;;14.50;99.90;;;;;;5072178;28;20052;-86
2022/05/24 07:33:03;;;;;;;0.63;0.55;;;14.50;99.90;;;;;;5067515;28;20047;-86
2022/05/24 07:35:29;;;;;;;1.05;0.50;;;14.40;99.90;;;;;;5057778;28;20094;-86
2022/05/24 07:37:54;;;;;;;0.50;0.50;;;14.30;99.90;;;;;;5092168;28;20127;-84
2022/05/24 07:45:51;;;;;;;0.85;0.40;;;14.40;99.90;;;;;;5093968;28;20127;-83
2022/05/24 07:48:17;;;;;;;0.30;0.30;;;14.40;99.90;;;;;;5077956;28;20051;-84
2022/05/24 07:50:43;;;;;;;0.43;0.43;;;14.50;99.90;;;;;;5110538;28;20495;-86
2022/05/24 07:53:09;;;;;;;0.77;0.40;;;14.50;99.90;;;;;;5102374;28;20035;-84
2022/05/24 07:55:35;;;;;;;0.93;0.60;;;14.60;99.90;;;;;;5112297;28;20024;-86
2022/05/24 07:58:01;;;;;;;0.57;0.50;;;14.70;99.90;;;;;;5089658;28;20043;-86
2022/05/24 08:00:27;;;;;;;0.40;0.40;;;14.80;99.90;;;;;;5105305;28;20043;-86
2022/05/24 08:02:53;;;;;;;0.65;0.35;;;14.90;99.90;;;;;;5123855;28;20031;-84
2022/05/24 08:05:19;;;;;;;0.50;0.50;;;14.90;99.90;;;;;;5092019;28;20024;-87
2022/05/24 08:07:49;;;;;;;0.50;0.50;;;15.00;99.90;;;;;;5138124;28;20099;-85
2022/05/24 08:10:15;;;;;;;0.40;0.40;;;15.00;99.90;;;;;;5094107;28;20052;-85
2022/05/24 08:12:41;;;;;;;0.50;0.32;;;15.10;99.90;;;;;;5062149;28;20052;-85
2022/05/24 08:15:07;;;;;;;0.50;0.47;;;15.10;99.90;;;;;;5096444;28;20099;-84
2022/05/24 08:17:34;;;;;;;0.55;0.55;;;15.20;99.90;;;;;;5095421;28;20040;-84
2022/05/24 08:19:59;;;;;;;0.90;0.60;;;15.20;99.90;;;;;;5109566;28;20047;-86
2022/05/24 08:22:25;;;;;;;0.63;0.43;;;15.20;99.90;;;;;;5082179;28;20526;-84
2022/05/24 08:24:51;;;;;;;0.70;0.52;;;15.20;99.90;;;;;;5114693;28;20495;-85
2022/05/24 08:27:16;;;;;;;0.60;0.50;;;15.20;99.90;;;;;;5084958;28;20045;-84
2022/05/24 08:29:42;;;;;;;0.40;0.40;;;15.10;99.90;;;;;;5078867;28;20404;-85
2022/05/24 08:32:08;;;;;;;0.50;0.50;;;15.10;99.90;;;;;;5112378;28;20081;-85
2022/05/24 08:34:34;;;;;;;0.73;0.50;;;15.10;99.90;;;;;;5083117;28;20063;-85
2022/05/24 08:37:00;;;;;;;0.77;0.60;;;15.10;99.90;;;;;;5114276;28;20453;-85
2022/05/24 08:39:26;;;;;;;0.57;0.45;;;15.20;99.90;;;;;;5085061;28;20503;-85
2022/05/24 08:42:07;;;;;;;0.50;0.50;;;15.30;99.90;;;;;;5079881;28;20051;-84
2022/05/24 08:50:14;;;;;;;0.50;0.50;;;15.10;99.90;;;;;;5083260;28;20407;-85
2022/05/24 08:52:43;;;;;;;0.40;0.40;;;15.10;99.90;;;;;;5087653;28;20044;-86
2022/05/24 08:55:10;;;;;;;0.50;0.50;;;15.10;99.90;;;;;;5077786;28;20056;-84
2022/05/24 08:57:56;;;;;;;0.52;0.50;;;15.00;99.90;;;;;;5075947;28;20044;-83
2022/05/24 09:00:28;;;;;;;0.57;0.50;;;15.00;99.90;;;;;;5077345;28;20064;-85
2022/05/24 09:02:57;;;;;;;0.77;0.50;;;15.00;99.90;;;;;;5078881;28;20089;-85
2022/05/24 09:05:28;;;;;;;0.63;0.63;;;15.00;99.90;;;;;;5061259;28;20071;-85
2022/05/24 09:07:57;;;;;;;;;;;15.10;99.90;;;;;;5077767;28;20048;-85
2022/05/24 09:10:26;;;;;;;0.90;0.63;;;15.20;99.90;;;;;;5075998;28;19920;-86
2022/05/24 09:13:29;;;;;;;0.30;0.30;;;15.30;99.90;;;;;;5061209;28;20149;-85
2022/05/24 09:16:12;;;;;;;0.30;0.20;;;15.10;99.90;;;;;;5093726;28;20047;-82
2022/05/24 09:19:00;;;;;;;0.20;0.20;;;14.90;99.90;;;;;;5092938;28;20483;-83
2022/05/24 09:21:31;;;;;;;0.20;0.20;;;14.70;99.90;;;;;;5077401;28;20055;-82
2022/05/24 09:24:11;;;;;;;;;;;14.50;99.90;;;;;;5094492;28;20070;-83
2022/05/24 09:27:07;;;;;;;0.17;0.17;;;14.40;99.90;;;;;;5084289;28;19927;-83
2022/05/24 09:29:33;;;;;;;0.20;0.10;;;14.30;99.90;;;;;;5079945;28;20044;-83
2022/05/24 09:32:03;;;;;;;0.10;0.10;;;14.20;99.90;;;;;;5110573;28;20513;-84
2022/05/24 09:34:30;;;;;;;0.10;0.10;;;14.10;99.90;;;;;;5063118;28;20054;-83
2022/05/24 09:37:01;;;;;;;0.30;0.17;;;14.10;99.90;;;;;;5096209;28;20402;-84
2022/05/24 09:39:26;;;;;;;;;;;14.10;99.90;;;;;;5085282;28;20040;-84
2022/05/24 09:42:06;;;;;;;0.17;0.17;;;14.10;99.90;;;;;;5076713;28;20253;-83
2022/05/24 09:44:46;;;;;;;0.10;0.10;;;14.10;99.90;;;;;;5092084;28;20048;-84
2022/05/24 09:47:35;;;;;;;0.10;0.10;;;14.10;99.90;;;;;;5061283;28;20123;-84
2022/05/24 09:50:32;;;;;;;0.10;0.10;;;14.20;99.90;;;;;;5116179;28;20046;-84
2022/05/24 09:53:16;;;;;;;0.10;0.10;;;14.40;99.90;;;;;;5109358;28;20067;-83
2022/05/24 09:55:48;;;;;;;0.20;0.10;;;14.60;99.90;;;;;;5095087;28;20044;-83
2022/05/24 09:58:39;;;;;;;0.35;0.35;;;14.80;99.90;;;;;;5118608;28;20027;-84
2022/05/24 10:01:11;;;;;;;0.47;0.20;;;14.90;99.90;;;;;;5138232;28;20063;-88
2022/05/24 10:03:37;;;;;;;0.20;0.20;;;14.90;99.90;;;;;;5119322;28;20043;-84
2022/05/24 10:06:13;;;;;;;0.20;0.20;;;15.10;99.90;;;;;;5119960;28;20483;-84
2022/05/24 10:08:44;;;;;;;0.20;0.20;;;15.10;99.90;;;;;;5096251;28;20077;-83
2022/05/24 10:11:17;;;;;;;0.20;0.20;;;15.10;99.90;;;;;;5078618;28;20058;-85
2022/05/24 10:14:12;;;;;;;0.20;0.20;;;15.20;99.90;;;;;;5050287;28;20056;-83
2022/05/24 10:16:45;;;;;;;0.40;0.30;;;15.30;99.90;;;;;;5046499;28;20061;-83
2022/05/24 10:19:35;;;;;;;0.20;0.13;;;15.40;99.90;;;;;;5055387;28;20059;-83
2022/05/24 10:22:24;;;;;;;0.30;0.30;;;15.40;99.90;;;;;;5098406;28;20419;-84
2022/05/24 10:25:02;;;;;;;0.30;0.30;;;15.20;99.90;;;;;;5093188;28;20418;-84
2022/05/24 10:27:55;;;;;;;0.20;0.20;;;15.00;99.90;;;;;;5059520;28;20051;-83
2022/05/24 10:30:44;;;;;;;0.25;0.22;;;14.90;99.90;;;;;;5100254;28;20040;-83
2022/05/24 10:39:46;;;;;;;0.17;0.13;;;14.80;99.90;;;;;;5082358;28;20047;-83
2022/05/24 10:42:36;;;;;;;0.20;0.20;;;15.00;99.90;;;;;;5102867;28;20126;-83
2022/05/24 10:45:09;;;;;;;0.10;0.10;;;15.20;99.90;;;;;;5089309;28;20079;-83
2022/05/24 10:47:44;;;;;;;0.10;0.10;;;15.40;99.90;;;;;;5078635;28;20062;-88
2022/05/24 10:50:10;;;;;;;0.20;0.15;;;15.50;99.90;;;;;;5093901;28;20108;-83
2022/05/24 10:53:02;;;;;;;0.10;0.10;;;15.50;99.90;;;;;;5094828;28;20044;-84
2022/05/24 10:55:31;;;;;;;0.30;0.22;;;15.30;99.90;;;;;;5074931;28;20059;-83
2022/05/24 10:58:11;;;;;;;0.10;0.10;;;15.20;99.90;;;;;;5074940;28;20118;-82
2022/05/24 11:00:45;;;;;;;0.13;0.13;;;15.10;99.90;;;;;;5059507;28;20059;-86
2022/05/24 11:03:15;;;;;;;0.20;0.20;;;15.00;99.90;;;;;;5091750;28;20126;-82
2022/05/24 11:06:04;;;;;;;0.20;0.20;;;14.90;99.90;;;;;;5091185;28;20043;-82
2022/05/24 11:08:32;;;;;;;0.20;0.20;;;14.80;99.90;;;;;;5058386;28;20113;-82
2022/05/24 11:11:12;;;;;;;0.60;0.30;;;14.80;99.90;;;;;;5091180;28;20055;-82
2022/05/24 11:13:51;;;;;;;0.30;0.30;;;14.80;99.90;;;;;;5091701;28;20060;-81
2022/05/24 11:16:33;;;;;;;0.20;0.20;;;14.90;99.90;;;;;;5091224;28;20127;-82
2022/05/24 11:18:59;;;;;;;0.20;0.20;;;15.00;99.90;;;;;;5076119;28;20343;-81
2022/05/24 11:21:32;;;;;;;0.10;0.10;;;15.10;99.90;;;;;;5083550;28;20043;-82
2022/05/24 11:24:02;;;;;;;0.15;0.15;;;15.20;99.90;;;;;;5064354;28;20518;-82
2022/05/24 11:26:34;;;;;;;0.20;0.20;;;15.10;99.90;;;;;;5062064;28;20067;-82
2022/05/24 11:29:22;;;;;;;0.15;0.15;;;15.30;99.90;;;;;;5089381;28;20636;-82
2022/05/24 11:31:50;;;;;;;0.10;0.10;;;15.50;99.90;;;;;;5100636;28;20043;-82
2022/05/24 11:34:23;;;;;;;0.20;0.20;;;15.80;99.90;;;;;;5058253;28;20045;-82
2022/05/24 11:37:04;;;;;;;0.10;0.10;;;15.80;99.90;;;;;;5098643;28;20231;-82
2022/05/24 11:39:32;;;;;;;0.20;0.20;;;15.90;99.90;;;;;;5099771;28;20047;-81
2022/05/24 11:42:17;;;;;;;0.10;0.10;;;15.90;99.90;;;;;;5095940;28;20054;-82
2022/05/24 11:44:43;;;;;;;0.10;0.10;;;15.90;99.90;;;;;;5098084;28;20047;-83
2022/05/24 11:47:08;;;;;;;0.15;0.15;;;16.10;99.90;;;;;;5126683;28;20043;-82
2022/05/24 11:49:34;;;;;;;0.20;0.20;;;16.10;99.90;;;;;;5117690;28;20051;-84
2022/05/24 11:52:01;;;;;;;0.10;0.10;;;16.10;99.90;;;;;;5121410;28;20088;-87
2022/05/24 11:54:29;;;;;;;0.10;0.10;;;16.00;99.90;;;;;;5089096;28;20051;-87
2022/05/24 11:57:01;;;;;;;0.10;0.10;;;15.90;99.90;;;;;;5139688;28;20020;-88
2022/05/24 11:59:48;;;;;;;0.10;0.10;;;15.90;99.90;;;;;;5127980;28;20034;-86
2022/05/24 12:02:26;;;;;;;0.10;0.10;;;16.10;99.90;;;;;;5129658;27;20028;-88
2022/05/24 12:08:00;;;;;;;0.10;0.10;;;16.40;99.90;;;;;;5066863;28;20052;-86
2022/05/24 12:10:46;;;;;;;0.10;0.10;;;16.50;99.90;;;;;;5095754;27;20094;-86
2022/05/24 12:13:27;;;;;;;0.10;0.10;;;16.60;99.90;;;;;;5081853;28;20043;-85
2022/05/24 12:15:54;;;;;;;0.10;0.10;;;16.70;99.90;;;;;;5064508;28;20047;-86
2022/05/24 12:18:24;;;;;;;0.10;0.10;;;16.70;99.90;;;;;;5080951;28;20055;-86
2022/05/24 12:20:49;;;;;;;0.10;0.10;;;16.70;99.90;;;;;;5063167;28;20109;-86
2022/05/24 12:23:30;;;;;;;0.10;0.10;;;16.80;99.90;;;;;;5077505;28;20044;-86
2022/05/24 12:26:01;;;;;;;0.10;0.10;;;16.90;99.90;;;;;;5096098;28;20494;-87
2022/05/24 12:28:34;;;;;;;0.10;0.10;;;16.70;99.90;;;;;;5113124;28;20039;-86
2022/05/24 12:31:01;;;;;;;0.10;0.10;;;16.40;99.90;;;;;;5089103;28;20050;-85
2022/05/24 12:33:53;;;;;;;0.20;0.10;;;16.00;99.90;;;;;;5076272;28;20044;-86
2022/05/24 12:36:22;;;;;;;0.32;0.10;;;15.90;99.90;;;;;;5086809;28;20517;-86
2022/05/24 12:38:57;;;;;;;0.10;0.10;;;15.70;99.90;;;;;;5069813;28;20090;-85
2022/05/24 12:41:33;;;;;;;0.10;0.10;;;15.70;99.90;;;;;;5090808;28;20044;-85
2022/05/24 12:44:22;;;;;;;0.10;0.10;;;15.70;99.90;;;;;;5080090;28;20395;-84
2022/05/24 12:46:59;;;;;;;0.20;0.20;;;15.80;99.90;;;;;;5082670;28;20596;-85
2022/05/24 12:49:26;;;;;;;0.20;0.20;;;15.90;99.90;;;;;;5093785;28;20040;-85
2022/05/24 12:52:01;;;;;;;0.10;0.10;;;16.10;99.90;;;;;;5097722;28;20046;-85
2022/05/24 12:54:34;;;;;;;0.10;0.10;;;16.20;99.90;;;;;;5067426;28;20140;-83
2022/05/24 12:57:04;;;;;;;0.10;0.10;;;16.30;99.90;;;;;;5061962;28;20044;-84
2022/05/24 12:59:34;;;;;;;0.10;0.10;;;16.30;99.90;;;;;;5077895;28;20047;-83
2022/05/24 13:02:03;;;;;;;;;;;16.30;99.90;;;;;;5081985;28;20040;-84
2022/05/24 13:04:29;;;;;;;0.10;0.10;;;16.20;99.90;;;;;;5083905;28;19978;-84
2022/05/24 13:06:56;;;;;;;0.10;0.10;;;16.20;99.90;;;;;;5081183;28;20044;-95
2022/05/24 13:09:23;;;;;;;0.10;0.10;;;16.10;99.90;;;;;;5083585;28;20130;-88
2022/05/24 13:12:03;;;;;;;0.10;0.10;;;16.00;99.90;;;;;;5081288;28;20060;-85
2022/05/24 13:14:49;;;;;;;0.10;0.10;;;15.80;99.90;;;;;;5064201;28;20104;-85
2022/05/24 13:17:17;;;;;;;0.10;0.10;;;15.60;99.90;;;;;;5060409;28;20048;-85
2022/05/24 13:20:00;;;;;;;0.10;0.10;;;15.50;99.90;;;;;;5077253;28;20079;-85
2022/05/24 13:22:45;;;;;;;0.20;0.20;;;15.60;99.90;;;;;;5094084;28;20115;-85
2022/05/24 13:25:15;;;;;;;1.30;0.20;;;15.70;99.90;;;;;;5087377;28;20047;-85
2022/05/24 13:27:55;;;;;;;0.20;0.20;;;15.80;99.90;;;;;;5067734;28;20040;-85
2022/05/24 13:33:46;;;;;;;0.30;0.10;;;15.90;99.90;;;;;;5078985;28;20052;-85
2022/05/24 13:36:26;;;;;;;0.15;0.15;;;15.80;99.90;;;;;;5090866;28;20040;-85
2022/05/24 13:39:06;;;;;;;0.28;0.20;;;15.40;99.90;;;;;;5038139;28;20133;-87
2022/05/24 13:41:38;;;;;;;0.30;0.30;;;15.20;99.90;;;;;;5062586;28;20056;-89
2022/05/24 13:44:26;;;;;;;0.20;0.20;;;15.00;99.90;;;;;;5082354;28;20027;-87
2022/05/24 13:47:09;;;;;;;0.20;0.20;;;15.00;99.90;;;;;;5105690;28;20043;-85
2022/05/24 13:49:44;;;;;;;0.38;0.30;;;15.20;99.90;;;;;;5111079;28;20048;-88